sensor_id;sensor_type;location;lat;lon;timestamp;pressure;altitude;pressure_sealevel;temperature;humidity
57376;BME280;44805;45.048;5.062;2022-08-07T00:01:44;99746.28;;;25.16;42.29
57376;BME280;44805;45.048;5.062;2022-08-07T00:04:10;99688.06;;;24.81;42.16
57376;BME280;44805;45.048;5.062;2022-08-07T00:06:36;99711.31;;;24.87;42.49
57376;BME280;44805;45.048;5.062;2022-08-07T00:09:02;99695.88;;;24.66;42.70
57376;BME280;44805;45.048;5.062;2022-08-07T00:11:29;99755.03;;;25.06;42.83
57376;BME280;44805;45.048;5.062;2022-08-07T00:13:54;99649.44;;;24.30;43.07
57376;BME280;44805;45.048;5.062;2022-08-07T00:16:19;99736.28;;;24.83;43.40
57376;BME280;44805;45.048;5.062;2022-08-07T00:18:45;99717.59;;;24.76;43.24
57376;BME280;44805;45.048;5.062;2022-08-07T00:21:13;99694.38;;;24.58;43.27
57376;BME280;44805;45.048;5.062;2022-08-07T00:23:39;99691.84;;;24.52;43.44
57376;BME280;44805;45.048;5.062;2022-08-07T00:26:08;99664.31;;;24.21;43.26
57376;BME280;44805;45.048;5.062;2022-08-07T00:28:34;99633.75;;;23.98;43.23
57376;BME280;44805;45.048;5.062;2022-08-07T00:31:02;99767.53;;;24.84;43.74
57376;BME280;44805;45.048;5.062;2022-08-07T00:33:28;99636.66;;;24.09;43.85
57376;BME280;44805;45.048;5.062;2022-08-07T00:35:55;99645.91;;;24.01;43.32
57376;BME280;44805;45.048;5.062;2022-08-07T00:38:21;99692.50;;;24.30;43.55
57376;BME280;44805;45.048;5.062;2022-08-07T00:40:46;99664.59;;;24.08;43.48
57376;BME280;44805;45.048;5.062;2022-08-07T00:43:12;99679.16;;;23.95;44.47
57376;BME280;44805;45.048;5.062;2022-08-07T00:45:41;99725.22;;;24.27;44.06
57376;BME280;44805;45.048;5.062;2022-08-07T00:48:08;99718.91;;;24.33;44.36
57376;BME280;44805;45.048;5.062;2022-08-07T00:50:33;99773.06;;;24.48;44.30
57376;BME280;44805;45.048;5.062;2022-08-07T00:52:59;99713.59;;;24.10;45.03
57376;BME280;44805;45.048;5.062;2022-08-07T00:55:28;99776.66;;;24.42;44.98
57376;BME280;44805;45.048;5.062;2022-08-07T00:57:54;99773.66;;;24.27;45.26
57376;BME280;44805;45.048;5.062;2022-08-07T01:00:19;99733.16;;;23.93;45.25
57376;BME280;44805;45.048;5.062;2022-08-07T01:02:51;99779.31;;;24.14;44.83
57376;BME280;44805;45.048;5.062;2022-08-07T01:05:17;99746.13;;;23.96;45.21
57376;BME280;44805;45.048;5.062;2022-08-07T01:07:44;99707.34;;;23.69;45.40
57376;BME280;44805;45.048;5.062;2022-08-07T01:10:10;99724.16;;;23.76;46.20
57376;BME280;44805;45.048;5.062;2022-08-07T01:12:37;99712.59;;;23.52;45.83
57376;BME280;44805;45.048;5.062;2022-08-07T01:15:04;99736.53;;;23.53;46.53
57376;BME280;44805;45.048;5.062;2022-08-07T01:17:31;99778.06;;;23.93;45.76
57376;BME280;44805;45.048;5.062;2022-08-07T01:20:04;99782.97;;;23.72;46.24
57376;BME280;44805;45.048;5.062;2022-08-07T01:22:31;99727.44;;;23.31;46.33
57376;BME280;44805;45.048;5.062;2022-08-07T01:24:57;99683.13;;;22.98;46.43
57376;BME280;44805;45.048;5.062;2022-08-07T01:27:23;99796.97;;;23.62;47.22
57376;BME280;44805;45.048;5.062;2022-08-07T01:29:49;99724.03;;;23.24;46.51
57376;BME280;44805;45.048;5.062;2022-08-07T01:32:16;99684.00;;;22.92;47.12
57376;BME280;44805;45.048;5.062;2022-08-07T01:34:43;99733.72;;;23.25;47.55
57376;BME280;44805;45.048;5.062;2022-08-07T01:37:10;99759.78;;;23.48;46.66
57376;BME280;44805;45.048;5.062;2022-08-07T01:39:37;99687.16;;;22.89;47.47
57376;BME280;44805;45.048;5.062;2022-08-07T01:42:03;99740.59;;;23.09;47.60
57376;BME280;44805;45.048;5.062;2022-08-07T01:44:29;99693.47;;;22.83;47.55
57376;BME280;44805;45.048;5.062;2022-08-07T01:46:55;99733.22;;;23.04;47.55
57376;BME280;44805;45.048;5.062;2022-08-07T01:49:21;99678.44;;;22.63;47.86
57376;BME280;44805;45.048;5.062;2022-08-07T01:51:47;99758.44;;;23.03;48.05
57376;BME280;44805;45.048;5.062;2022-08-07T01:54:14;99737.03;;;22.66;48.28
57376;BME280;44805;45.048;5.062;2022-08-07T01:59:17;99696.50;;;22.56;48.12
57376;BME280;44805;45.048;5.062;2022-08-07T02:01:53;99805.38;;;23.12;48.49
57376;BME280;44805;45.048;5.062;2022-08-07T02:04:27;99794.91;;;22.92;48.77
57376;BME280;44805;45.048;5.062;2022-08-07T02:06:56;99708.63;;;22.47;49.34
57376;BME280;44805;45.048;5.062;2022-08-07T02:09:24;99789.13;;;23.07;48.48
57376;BME280;44805;45.048;5.062;2022-08-07T02:11:52;99714.84;;;22.59;48.36
57376;BME280;44805;45.048;5.062;2022-08-07T02:14:20;99723.00;;;22.64;48.48
57376;BME280;44805;45.048;5.062;2022-08-07T02:16:56;99745.81;;;22.73;48.62
57376;BME280;44805;45.048;5.062;2022-08-07T02:19:25;99711.94;;;22.61;48.17
57376;BME280;44805;45.048;5.062;2022-08-07T02:21:53;99782.91;;;22.95;48.44
57376;BME280;44805;45.048;5.062;2022-08-07T02:24:19;99733.03;;;22.57;48.65
57376;BME280;44805;45.048;5.062;2022-08-07T02:26:46;99710.84;;;22.50;48.42
57376;BME280;44805;45.048;5.062;2022-08-07T02:29:13;99687.56;;;22.32;48.53
57376;BME280;44805;45.048;5.062;2022-08-07T02:31:39;99703.72;;;22.25;48.86
57376;BME280;44805;45.048;5.062;2022-08-07T02:34:05;99806.28;;;22.76;49.48
57376;BME280;44805;45.048;5.062;2022-08-07T02:36:32;99688.81;;;21.93;49.58
57376;BME280;44805;45.048;5.062;2022-08-07T02:39:03;99680.78;;;21.93;49.65
57376;BME280;44805;45.048;5.062;2022-08-07T02:41:30;99685.19;;;21.87;48.77
57376;BME280;44805;45.048;5.062;2022-08-07T02:43:57;99716.38;;;22.00;49.91
57376;BME280;44805;45.048;5.062;2022-08-07T02:46:25;99704.41;;;22.02;49.23
57376;BME280;44805;45.048;5.062;2022-08-07T02:48:51;99798.47;;;22.56;48.88
57376;BME280;44805;45.048;5.062;2022-08-07T02:51:18;99745.81;;;22.25;49.09
57376;BME280;44805;45.048;5.062;2022-08-07T02:53:45;99765.41;;;22.25;49.38
57376;BME280;44805;45.048;5.062;2022-08-07T02:56:19;99677.97;;;21.69;49.25
57376;BME280;44805;45.048;5.062;2022-08-07T02:58:46;99720.03;;;21.87;49.55
57376;BME280;44805;45.048;5.062;2022-08-07T03:01:15;99706.41;;;21.88;49.46
57376;BME280;44805;45.048;5.062;2022-08-07T03:03:42;99710.41;;;21.79;49.87
57376;BME280;44805;45.048;5.062;2022-08-07T03:06:08;99716.16;;;21.83;49.59
57376;BME280;44805;45.048;5.062;2022-08-07T03:08:35;99655.16;;;21.41;49.88
57376;BME280;44805;45.048;5.062;2022-08-07T03:11:02;99711.31;;;21.73;50.45
57376;BME280;44805;45.048;5.062;2022-08-07T03:13:28;99641.72;;;21.48;49.86
57376;BME280;44805;45.048;5.062;2022-08-07T03:15:54;99713.72;;;21.81;50.13
57376;BME280;44805;45.048;5.062;2022-08-07T03:18:21;99728.00;;;21.94;49.62
57376;BME280;44805;45.048;5.062;2022-08-07T03:20:46;99736.06;;;21.94;49.75
57376;BME280;44805;45.048;5.062;2022-08-07T03:23:13;99752.34;;;21.92;50.15
57376;BME280;44805;45.048;5.062;2022-08-07T03:25:40;99703.69;;;21.52;50.91
57376;BME280;44805;45.048;5.062;2022-08-07T03:28:11;99684.78;;;21.46;50.73
57376;BME280;44805;45.048;5.062;2022-08-07T03:30:38;99721.28;;;21.66;50.42
57376;BME280;44805;45.048;5.062;2022-08-07T03:33:05;99781.19;;;21.97;51.21
57376;BME280;44805;45.048;5.062;2022-08-07T03:35:32;99781.69;;;21.87;51.23
57376;BME280;44805;45.048;5.062;2022-08-07T03:38:02;99728.25;;;21.49;51.11
57376;BME280;44805;45.048;5.062;2022-08-07T03:40:28;99648.22;;;21.09;51.32
57376;BME280;44805;45.048;5.062;2022-08-07T03:42:54;99658.44;;;20.93;51.87
57376;BME280;44805;45.048;5.062;2022-08-07T03:45:24;99789.38;;;21.58;52.18
57376;BME280;44805;45.048;5.062;2022-08-07T03:47:51;99654.66;;;20.76;52.01
57376;BME280;44805;45.048;5.062;2022-08-07T03:50:18;99697.34;;;21.21;51.89
57376;BME280;44805;45.048;5.062;2022-08-07T03:52:46;99690.81;;;21.17;52.06
57376;BME280;44805;45.048;5.062;2022-08-07T03:55:12;99700.63;;;21.23;51.94
57376;BME280;44805;45.048;5.062;2022-08-07T03:57:41;99742.38;;;21.31;52.55
57376;BME280;44805;45.048;5.062;2022-08-07T04:00:07;99706.03;;;21.16;52.72
57376;BME280;44805;45.048;5.062;2022-08-07T04:02:33;99776.19;;;21.57;52.59
57376;BME280;44805;45.048;5.062;2022-08-07T04:04:59;99679.19;;;20.98;52.54
57376;BME280;44805;45.048;5.062;2022-08-07T04:07:25;99704.03;;;21.12;52.22
57376;BME280;44805;45.048;5.062;2022-08-07T04:09:51;99722.88;;;21.23;52.85
57376;BME280;44805;45.048;5.062;2022-08-07T04:12:17;99776.94;;;21.64;52.71
57376;BME280;44805;45.048;5.062;2022-08-07T04:14:43;99713.66;;;21.19;52.65
57376;BME280;44805;45.048;5.062;2022-08-07T04:17:10;99746.03;;;21.36;52.79
57376;BME280;44805;45.048;5.062;2022-08-07T04:19:39;99788.13;;;21.61;52.76
57376;BME280;44805;45.048;5.062;2022-08-07T04:22:05;99739.22;;;21.15;52.83
57376;BME280;44805;45.048;5.062;2022-08-07T04:24:32;99712.75;;;21.00;53.18
57376;BME280;44805;45.048;5.062;2022-08-07T04:26:58;99791.00;;;21.59;52.84
57376;BME280;44805;45.048;5.062;2022-08-07T04:29:27;99720.66;;;21.14;53.09
57376;BME280;44805;45.048;5.062;2022-08-07T04:31:52;99795.59;;;21.52;53.45
57376;BME280;44805;45.048;5.062;2022-08-07T04:34:21;99746.09;;;21.30;53.03
57376;BME280;44805;45.048;5.062;2022-08-07T04:36:46;99681.97;;;20.85;53.48
57376;BME280;44805;45.048;5.062;2022-08-07T04:39:12;99666.84;;;20.72;53.53
57376;BME280;44805;45.048;5.062;2022-08-07T04:41:38;99657.88;;;20.53;53.59
57376;BME280;44805;45.048;5.062;2022-08-07T04:44:03;99678.81;;;20.63;53.42
57376;BME280;44805;45.048;5.062;2022-08-07T04:49:08;99729.84;;;20.99;53.39
57376;BME280;44805;45.048;5.062;2022-08-07T04:52:04;99751.16;;;21.13;53.79
57376;BME280;44805;45.048;5.062;2022-08-07T04:54:42;99771.63;;;21.00;54.03
57376;BME280;44805;45.048;5.062;2022-08-07T05:00:01;99769.94;;;21.06;53.83
57376;BME280;44805;45.048;5.062;2022-08-07T05:02:32;99706.81;;;20.67;53.77
57376;BME280;44805;45.048;5.062;2022-08-07T05:05:16;99814.66;;;21.37;54.02
57376;BME280;44805;45.048;5.062;2022-08-07T05:07:55;99756.78;;;21.05;53.66
57376;BME280;44805;45.048;5.062;2022-08-07T05:10:32;99804.00;;;21.24;53.79
57376;BME280;44805;45.048;5.062;2022-08-07T05:19:05;99772.66;;;21.81;52.52
57376;BME280;44805;45.048;5.062;2022-08-07T05:21:32;99763.25;;;21.72;52.16
57376;BME280;44805;45.048;5.062;2022-08-07T05:24:02;99738.84;;;21.80;51.42
57376;BME280;44805;45.048;5.062;2022-08-07T05:26:32;99779.16;;;22.10;51.10
57376;BME280;44805;45.048;5.062;2022-08-07T05:29:00;99777.06;;;22.19;50.98
57376;BME280;44805;45.048;5.062;2022-08-07T05:34:49;99730.31;;;21.90;50.41
57376;BME280;44805;45.048;5.062;2022-08-07T05:37:15;99796.19;;;22.23;50.54
57376;BME280;44805;45.048;5.062;2022-08-07T05:39:44;99851.16;;;22.69;50.56
57376;BME280;44805;45.048;5.062;2022-08-07T05:42:13;99755.63;;;21.94;50.55
57376;BME280;44805;45.048;5.062;2022-08-07T05:44:39;99751.47;;;21.98;50.02
57376;BME280;44805;45.048;5.062;2022-08-07T05:47:05;99788.59;;;22.38;50.10
57376;BME280;44805;45.048;5.062;2022-08-07T05:49:33;99750.94;;;21.89;49.81
57376;BME280;44805;45.048;5.062;2022-08-07T05:51:59;99862.44;;;22.78;49.57
57376;BME280;44805;45.048;5.062;2022-08-07T05:54:24;99743.34;;;22.23;49.20
57376;BME280;44805;45.048;5.062;2022-08-07T05:56:52;99736.50;;;22.27;49.24
57376;BME280;44805;45.048;5.062;2022-08-07T05:59:20;99748.13;;;22.40;48.89
57376;BME280;44805;45.048;5.062;2022-08-07T06:01:48;99808.00;;;22.70;48.82
57376;BME280;44805;45.048;5.062;2022-08-07T06:04:17;99735.91;;;22.25;48.53
57376;BME280;44805;45.048;5.062;2022-08-07T06:06:47;99758.41;;;22.43;48.67
57376;BME280;44805;45.048;5.062;2022-08-07T06:09:14;99764.38;;;22.45;48.73
57376;BME280;44805;45.048;5.062;2022-08-07T06:11:41;99758.97;;;22.63;48.32
57376;BME280;44805;45.048;5.062;2022-08-07T06:14:07;99833.97;;;23.07;48.56
57376;BME280;44805;45.048;5.062;2022-08-07T06:16:43;99813.25;;;22.47;49.69
57376;BME280;44805;45.048;5.062;2022-08-07T06:19:12;99776.41;;;22.17;49.29
57376;BME280;44805;45.048;5.062;2022-08-07T06:21:38;99772.28;;;22.21;49.58
57376;BME280;44805;45.048;5.062;2022-08-07T06:24:04;99789.97;;;22.59;48.95
57376;BME280;44805;45.048;5.062;2022-08-07T06:26:30;99801.44;;;22.85;48.49
57376;BME280;44805;45.048;5.062;2022-08-07T06:28:57;99844.03;;;23.11;48.45
57376;BME280;44805;45.048;5.062;2022-08-07T06:31:24;99753.50;;;22.40;48.34
57376;BME280;44805;45.048;5.062;2022-08-07T06:33:50;99742.44;;;22.48;48.33
57376;BME280;44805;45.048;5.062;2022-08-07T06:36:16;99768.22;;;22.49;48.96
57376;BME280;44805;45.048;5.062;2022-08-07T06:38:42;99745.88;;;22.18;49.35
57376;BME280;44805;45.048;5.062;2022-08-07T06:41:29;99875.19;;;22.82;49.47
57376;BME280;44805;45.048;5.062;2022-08-07T06:43:57;99761.94;;;22.18;49.35
57376;BME280;44805;45.048;5.062;2022-08-07T06:46:25;99862.31;;;23.33;48.44
57376;BME280;44805;45.048;5.062;2022-08-07T06:48:50;99868.81;;;23.13;48.85
57376;BME280;44805;45.048;5.062;2022-08-07T06:51:19;99763.59;;;22.56;48.34
57376;BME280;44805;45.048;5.062;2022-08-07T06:53:46;99761.97;;;22.55;48.16
57376;BME280;44805;45.048;5.062;2022-08-07T06:56:13;99754.94;;;22.24;48.89
57376;BME280;44805;45.048;5.062;2022-08-07T06:58:45;99756.91;;;22.28;48.79
57376;BME280;44805;45.048;5.062;2022-08-07T07:01:12;99749.22;;;22.50;48.87
57376;BME280;44805;45.048;5.062;2022-08-07T07:03:41;99750.94;;;22.45;48.99
57376;BME280;44805;45.048;5.062;2022-08-07T07:06:07;99730.47;;;22.32;49.02
57376;BME280;44805;45.048;5.062;2022-08-07T07:45:14;99812.38;;;23.44;50.07
57376;BME280;44805;45.048;5.062;2022-08-07T07:48:19;99845.72;;;23.78;48.87
57376;BME280;44805;45.048;5.062;2022-08-07T07:50:47;99739.56;;;23.22;49.22
57376;BME280;44805;45.048;5.062;2022-08-07T07:53:20;99819.78;;;23.83;48.82
57376;BME280;44805;45.048;5.062;2022-08-07T07:55:47;99794.19;;;23.81;49.16
57376;BME280;44805;45.048;5.062;2022-08-07T07:58:13;99728.94;;;23.50;48.83
57376;BME280;44805;45.048;5.062;2022-08-07T08:00:41;99766.25;;;23.82;48.81
57376;BME280;44805;45.048;5.062;2022-08-07T08:03:12;99726.03;;;23.52;48.61
57376;BME280;44805;45.048;5.062;2022-08-07T08:05:40;99787.03;;;23.98;48.22
57376;BME280;44805;45.048;5.062;2022-08-07T08:08:07;99724.88;;;23.59;48.79
57376;BME280;44805;45.048;5.062;2022-08-07T08:10:33;99752.44;;;23.78;48.90
57376;BME280;44805;45.048;5.062;2022-08-07T08:13:01;99766.00;;;23.95;48.59
57376;BME280;44805;45.048;5.062;2022-08-07T08:15:30;99786.13;;;24.04;48.80
57376;BME280;44805;45.048;5.062;2022-08-07T08:17:59;99817.03;;;24.42;48.54
57376;BME280;44805;45.048;5.062;2022-08-07T08:20:30;99784.63;;;24.37;48.02
57376;BME280;44805;45.048;5.062;2022-08-07T08:22:58;99792.59;;;24.32;48.65
57376;BME280;44805;45.048;5.062;2022-08-07T08:25:43;99759.44;;;24.15;48.33
57376;BME280;44805;45.048;5.062;2022-08-07T08:28:30;99747.94;;;24.31;47.42
57376;BME280;44805;45.048;5.062;2022-08-07T08:30:58;99778.69;;;24.47;48.15
57376;BME280;44805;45.048;5.062;2022-08-07T08:33:28;99721.41;;;24.11;48.06
57376;BME280;44805;45.048;5.062;2022-08-07T08:35:56;99779.03;;;24.51;47.46
57376;BME280;44805;45.048;5.062;2022-08-07T08:38:24;99753.09;;;24.33;48.03
57376;BME280;44805;45.048;5.062;2022-08-07T08:41:16;99815.22;;;25.00;47.34
57376;BME280;44805;45.048;5.062;2022-08-07T08:43:51;99822.38;;;25.06;47.12
57376;BME280;44805;45.048;5.062;2022-08-07T08:46:42;99804.63;;;25.22;47.27
57376;BME280;44805;45.048;5.062;2022-08-07T08:49:32;99736.19;;;24.78;47.58
57376;BME280;44805;45.048;5.062;2022-08-07T08:52:06;99724.28;;;24.90;46.67
57376;BME280;44805;45.048;5.062;2022-08-07T08:54:46;99702.25;;;24.77;46.68
57376;BME280;44805;45.048;5.062;2022-08-07T08:57:37;99744.66;;;25.15;46.27
57376;BME280;44805;45.048;5.062;2022-08-07T09:00:07;99767.09;;;25.04;46.76
57376;BME280;44805;45.048;5.062;2022-08-07T09:02:57;99805.50;;;25.62;46.12
57376;BME280;44805;45.048;5.062;2022-08-07T09:05:39;99763.53;;;25.49;45.78
57376;BME280;44805;45.048;5.062;2022-08-07T09:08:24;99742.31;;;25.36;45.84
57376;BME280;44805;45.048;5.062;2022-08-07T09:11:13;99795.56;;;25.62;45.89
57376;BME280;44805;45.048;5.062;2022-08-07T09:19:39;99690.41;;;25.84;45.03
57376;BME280;44805;45.048;5.062;2022-08-07T09:25:22;99746.63;;;26.31;43.90
57376;BME280;44805;45.048;5.062;2022-08-07T09:28:05;99781.28;;;26.61;43.72
57376;BME280;44805;45.048;5.062;2022-08-07T09:36:23;99772.28;;;26.78;42.97
57376;BME280;44805;45.048;5.062;2022-08-07T09:50:03;99648.22;;;26.71;42.19
57376;BME280;44805;45.048;5.062;2022-08-07T09:53:03;99678.91;;;27.19;41.83
57376;BME280;44805;45.048;5.062;2022-08-07T09:58:46;99763.53;;;28.00;41.38
57376;BME280;44805;45.048;5.062;2022-08-07T10:04:36;99670.72;;;27.52;40.24
57376;BME280;44805;45.048;5.062;2022-08-07T10:10:39;99653.84;;;27.34;40.17
57376;BME280;44805;45.048;5.062;2022-08-07T10:13:18;99649.25;;;27.82;39.84
57376;BME280;44805;45.048;5.062;2022-08-07T10:16:13;99752.44;;;28.69;38.82
57376;BME280;44805;45.048;5.062;2022-08-07T10:45:42;99729.19;;;29.30;37.13
57376;BME280;44805;45.048;5.062;2022-08-07T11:17:02;99658.34;;;29.62;35.55
57376;BME280;44805;45.048;5.062;2022-08-07T11:22:18;99593.56;;;30.10;34.69
57376;BME280;44805;45.048;5.062;2022-08-07T11:25:03;99573.69;;;29.70;34.21
57376;BME280;44805;45.048;5.062;2022-08-07T11:27:51;99681.47;;;30.14;34.83
57376;BME280;44805;45.048;5.062;2022-08-07T11:30:20;99689.03;;;30.22;35.17
57376;BME280;44805;45.048;5.062;2022-08-07T11:33:03;99585.44;;;29.40;35.51
57376;BME280;44805;45.048;5.062;2022-08-07T11:36:07;99616.41;;;29.29;35.57
57376;BME280;44805;45.048;5.062;2022-08-07T11:38:38;99666.94;;;29.95;35.64
57376;BME280;44805;45.048;5.062;2022-08-07T11:41:17;99649.88;;;29.84;34.85
57376;BME280;44805;45.048;5.062;2022-08-07T11:44:13;99622.22;;;29.82;34.49
57376;BME280;44805;45.048;5.062;2022-08-07T11:46:54;99577.75;;;29.73;34.66
57376;BME280;44805;45.048;5.062;2022-08-07T11:49:35;99618.38;;;29.88;34.65
57376;BME280;44805;45.048;5.062;2022-08-07T11:52:29;99682.25;;;30.20;34.37
57376;BME280;44805;45.048;5.062;2022-08-07T11:57:47;99643.53;;;30.54;34.04
57376;BME280;44805;45.048;5.062;2022-08-07T12:00:24;99552.59;;;30.01;33.62
57376;BME280;44805;45.048;5.062;2022-08-07T12:09:27;99611.22;;;30.07;33.35
57376;BME280;44805;45.048;5.062;2022-08-07T12:14:43;99549.97;;;29.86;33.04
57376;BME280;44805;45.048;5.062;2022-08-07T12:17:11;99542.41;;;29.83;33.19
57376;BME280;44805;45.048;5.062;2022-08-07T12:23:15;99644.53;;;30.63;33.14
57376;BME280;44805;45.048;5.062;2022-08-07T12:26:12;99554.81;;;29.94;33.34
57376;BME280;44805;45.048;5.062;2022-08-07T12:31:30;99592.41;;;30.61;32.81
57376;BME280;44805;45.048;5.062;2022-08-07T12:34:00;99548.22;;;30.05;31.94
57376;BME280;44805;45.048;5.062;2022-08-07T12:36:28;99582.94;;;30.14;32.02
57376;BME280;44805;45.048;5.062;2022-08-07T12:38:55;99547.03;;;30.22;31.85
57376;BME280;44805;45.048;5.062;2022-08-07T12:41:24;99596.66;;;30.33;32.75
57376;BME280;44805;45.048;5.062;2022-08-07T12:44:00;99537.41;;;30.00;32.48
57376;BME280;44805;45.048;5.062;2022-08-07T13:22:59;99594.19;;;31.05;30.95
57376;BME280;44805;45.048;5.062;2022-08-07T13:25:53;99536.22;;;30.80;30.51
57376;BME280;44805;45.048;5.062;2022-08-07T13:28:26;99529.91;;;30.56;30.87
57376;BME280;44805;45.048;5.062;2022-08-07T13:31:23;99596.09;;;31.28;30.76
57376;BME280;44805;45.048;5.062;2022-08-07T13:34:13;99497.09;;;30.18;30.71
57376;BME280;44805;45.048;5.062;2022-08-07T13:36:48;99546.06;;;30.76;31.05
57376;BME280;44805;45.048;5.062;2022-08-07T13:41:50;99590.78;;;31.18;30.46
57376;BME280;44805;45.048;5.062;2022-08-07T13:44:31;99537.00;;;30.57;30.15
57376;BME280;44805;45.048;5.062;2022-08-07T13:46:59;99546.97;;;30.66;30.17
57376;BME280;44805;45.048;5.062;2022-08-07T13:49:31;99512.00;;;30.55;29.36
57376;BME280;44805;45.048;5.062;2022-08-07T13:52:02;99480.25;;;30.21;30.02
57376;BME280;44805;45.048;5.062;2022-08-07T13:54:34;99529.78;;;30.42;29.75
57376;BME280;44805;45.048;5.062;2022-08-07T13:57:02;99545.56;;;30.69;30.11
57376;BME280;44805;45.048;5.062;2022-08-07T13:59:33;99585.44;;;30.84;29.83
57376;BME280;44805;45.048;5.062;2022-08-07T14:02:08;99513.97;;;30.49;29.23
57376;BME280;44805;45.048;5.062;2022-08-07T14:04:47;99585.44;;;31.08;28.78
57376;BME280;44805;45.048;5.062;2022-08-07T14:07:14;99518.13;;;30.41;29.46
57376;BME280;44805;45.048;5.062;2022-08-07T14:09:41;99510.53;;;30.67;29.20
57376;BME280;44805;45.048;5.062;2022-08-07T14:12:21;99515.84;;;30.54;29.86
57376;BME280;44805;45.048;5.062;2022-08-07T14:15:03;99483.00;;;30.16;29.09
57376;BME280;44805;45.048;5.062;2022-08-07T14:21:40;99550.19;;;30.98;30.20
57376;BME280;44805;45.048;5.062;2022-08-07T14:24:13;99467.63;;;30.35;29.10
57376;BME280;44805;45.048;5.062;2022-08-07T14:26:47;99496.94;;;30.67;29.53
57376;BME280;44805;45.048;5.062;2022-08-07T14:29:17;99449.69;;;30.39;29.76
57376;BME280;44805;45.048;5.062;2022-08-07T14:31:45;99456.75;;;30.35;29.46
57376;BME280;44805;45.048;5.062;2022-08-07T14:34:15;99477.75;;;30.59;28.38
57376;BME280;44805;45.048;5.062;2022-08-07T14:36:47;99458.34;;;30.41;29.28
57376;BME280;44805;45.048;5.062;2022-08-07T14:39:16;99511.38;;;30.63;29.40
57376;BME280;44805;45.048;5.062;2022-08-07T14:41:47;99542.44;;;30.81;29.52
57376;BME280;44805;45.048;5.062;2022-08-07T14:44:15;99502.19;;;30.59;29.61
57376;BME280;44805;45.048;5.062;2022-08-07T14:46:46;99428.75;;;30.11;29.39
57376;BME280;44805;45.048;5.062;2022-08-07T14:52:20;99426.72;;;30.21;29.67
57376;BME280;44805;45.048;5.062;2022-08-07T14:54:48;99426.72;;;30.21;29.10
57376;BME280;44805;45.048;5.062;2022-08-07T14:57:17;99441.03;;;30.32;29.17
57376;BME280;44805;45.048;5.062;2022-08-07T14:59:44;99522.50;;;30.96;28.66
57376;BME280;44805;45.048;5.062;2022-08-07T15:02:24;99427.31;;;30.18;29.01
57376;BME280;44805;45.048;5.062;2022-08-07T15:04:53;99471.34;;;30.44;28.88
57376;BME280;44805;45.048;5.062;2022-08-07T15:07:23;99420.91;;;30.38;28.71
57376;BME280;44805;45.048;5.062;2022-08-07T15:09:51;99429.44;;;30.50;29.40
57376;BME280;44805;45.048;5.062;2022-08-07T15:12:31;99425.34;;;30.53;28.96
57376;BME280;44805;45.048;5.062;2022-08-07T15:15:14;99418.56;;;30.50;29.13
57376;BME280;44805;45.048;5.062;2022-08-07T15:21:20;99394.66;;;30.53;29.38
57376;BME280;44805;45.048;5.062;2022-08-07T15:23:56;99476.00;;;30.97;29.17
57376;BME280;44805;45.048;5.062;2022-08-07T15:26:32;99465.69;;;30.94;28.94
57376;BME280;44805;45.048;5.062;2022-08-07T15:29:06;99465.13;;;30.97;28.64
57376;BME280;44805;45.048;5.062;2022-08-07T15:40:57;99417.53;;;30.70;27.53
57376;BME280;44805;45.048;5.062;2022-08-07T15:43:38;99394.84;;;30.61;28.00
57376;BME280;44805;45.048;5.062;2022-08-07T15:49:44;99406.91;;;30.50;28.63
57376;BME280;44805;45.048;5.062;2022-08-07T15:52:38;99394.31;;;30.59;28.45
57376;BME280;44805;45.048;5.062;2022-08-07T15:55:32;99418.25;;;30.57;27.66
57376;BME280;44805;45.048;5.062;2022-08-07T15:58:02;99493.28;;;30.82;28.45
57376;BME280;44805;45.048;5.062;2022-08-07T16:00:47;99392.47;;;30.55;28.34
57376;BME280;44805;45.048;5.062;2022-08-07T16:03:58;99470.19;;;31.04;28.52
57376;BME280;44805;45.048;5.062;2022-08-07T16:06:57;99448.94;;;30.87;28.85
57376;BME280;44805;45.048;5.062;2022-08-07T16:09:56;99480.19;;;31.32;28.38
57376;BME280;44805;45.048;5.062;2022-08-07T16:16:20;99484.44;;;31.20;28.63
57376;BME280;44805;45.048;5.062;2022-08-07T16:32:00;99371.28;;;30.27;28.70
57376;BME280;44805;45.048;5.062;2022-08-07T16:35:25;99481.53;;;31.11;28.77
57376;BME280;44805;45.048;5.062;2022-08-07T17:11:21;99485.69;;;30.79;28.94
57376;BME280;44805;45.048;5.062;2022-08-07T17:20:30;99392.06;;;30.13;28.64
57376;BME280;44805;45.048;5.062;2022-08-07T17:39:12;99391.53;;;29.82;28.71
57376;BME280;44805;45.048;5.062;2022-08-07T17:42:41;99408.28;;;29.89;28.38
57376;BME280;44805;45.048;5.062;2022-08-07T17:45:25;99388.88;;;29.77;28.51
57376;BME280;44805;45.048;5.062;2022-08-07T17:48:14;99499.16;;;30.36;28.77
57376;BME280;44805;45.048;5.062;2022-08-07T17:51:46;99416.88;;;29.67;28.58
57376;BME280;44805;45.048;5.062;2022-08-07T17:54:53;99401.75;;;29.51;28.42
57376;BME280;44805;45.048;5.062;2022-08-07T17:57:46;99385.81;;;29.44;28.74
57376;BME280;44805;45.048;5.062;2022-08-07T18:00:23;99498.56;;;30.05;29.34
57376;BME280;44805;45.048;5.062;2022-08-07T18:03:22;99496.69;;;30.00;29.57
57376;BME280;44805;45.048;5.062;2022-08-07T18:09:11;99467.06;;;29.64;29.14
57376;BME280;44805;45.048;5.062;2022-08-07T18:11:57;99414.97;;;29.18;29.51
57376;BME280;44805;45.048;5.062;2022-08-07T18:18:13;99503.69;;;29.67;29.85
57376;BME280;44805;45.048;5.062;2022-08-07T18:21:23;99410.44;;;28.98;30.04
57376;BME280;44805;45.048;5.062;2022-08-07T18:24:37;99528.41;;;29.55;29.78
57376;BME280;44805;45.048;5.062;2022-08-07T18:30:50;99444.66;;;28.78;29.61
57376;BME280;44805;45.048;5.062;2022-08-07T18:37:26;99427.38;;;28.54;30.01
57376;BME280;44805;45.048;5.062;2022-08-07T18:43:16;99470.44;;;28.61;30.34
57376;BME280;44805;45.048;5.062;2022-08-07T18:46:29;99426.88;;;28.06;30.40
57376;BME280;44805;45.048;5.062;2022-08-07T19:01:00;99501.59;;;28.02;31.20
57376;BME280;44805;45.048;5.062;2022-08-07T22:29:04;99558.00;;;24.64;38.98